Time;durP1;ratioP1;P1;durP2;ratioP2;P2;SDS_P1;SDS_P2;PMS_P1;PMS_P2;Temp;Humidity;BMP_temperature;BMP_pressure;BME280_temperature;BME280_humidity;BME280_pressure;Samples;Min_cycle;Max_cycle;Signal;HPM_P1;HPM_P2
2024/01/27 00:01:47;;;;;;;11.65;8.13;;;2.40;99.90;;;;;;5063884;28;20016;-92
2024/01/27 00:04:13;;;;;;;12.13;7.78;;;2.30;99.90;;;;;;5063253;28;20029;-92
2024/01/27 00:06:39;;;;;;;11.05;7.35;;;2.30;99.90;;;;;;5056233;28;20394;-91
2024/01/27 00:09:06;;;;;;;10.23;7.93;;;2.30;99.90;;;;;;5065222;28;20039;-89
2024/01/27 00:11:32;;;;;;;11.25;7.35;;;2.40;99.90;;;;;;5083110;28;20088;-92
2024/01/27 00:13:59;;;;;;;8.20;7.22;;;2.30;99.90;;;;;;5065831;28;20025;-91
2024/01/27 00:16:25;;;;;;;10.20;8.57;;;2.20;99.90;;;;;;5064447;28;20032;-92
2024/01/27 00:18:50;;;;;;;9.82;7.30;;;2.10;99.90;;;;;;5083133;28;20118;-92
2024/01/27 00:21:19;;;;;;;10.00;7.15;;;2.10;99.90;;;;;;5082248;28;20024;-92
2024/01/27 00:23:45;;;;;;;12.43;8.05;;;2.20;99.90;;;;;;5065147;28;20017;-92
2024/01/27 00:26:11;;;;;;;12.05;7.05;;;2.20;99.90;;;;;;5081747;28;20494;-91
2024/01/27 00:28:36;;;;;;;12.30;8.10;;;2.10;99.90;;;;;;5082390;28;20538;-92
2024/01/27 00:31:02;;;;;;;10.02;8.13;;;2.10;99.90;;;;;;5081439;28;20052;-92
2024/01/27 00:33:28;;;;;;;9.75;8.02;;;2.10;99.90;;;;;;5081908;28;20020;-93
2024/01/27 00:35:54;;;;;;;15.45;7.88;;;2.10;99.90;;;;;;5062946;28;20024;-90
2024/01/27 00:38:20;;;;;;;10.57;7.40;;;2.10;99.90;;;;;;5059742;28;20029;-92
2024/01/27 00:40:46;;;;;;;9.68;6.97;;;2.10;99.90;;;;;;5080848;28;20518;-92
2024/01/27 00:43:12;;;;;;;9.27;6.97;;;2.10;99.90;;;;;;5081461;28;20017;-92
2024/01/27 00:45:38;;;;;;;11.35;6.90;;;2.10;99.90;;;;;;5062998;28;20414;-92
2024/01/27 00:48:05;;;;;;;11.57;6.93;;;2.10;99.90;;;;;;5061895;28;20035;-91
2024/01/27 00:50:30;;;;;;;11.57;7.88;;;2.10;99.90;;;;;;5062685;28;20088;-91
2024/01/27 00:52:56;;;;;;;11.35;7.78;;;2.00;99.90;;;;;;5081423;28;20044;-93
2024/01/27 00:55:22;;;;;;;10.55;7.38;;;1.90;99.90;;;;;;5063468;28;20027;-92
2024/01/27 00:57:48;;;;;;;10.77;7.20;;;2.00;99.90;;;;;;5083579;28;20020;-93
2024/01/27 01:00:15;;;;;;;11.02;6.80;;;2.00;99.90;;;;;;5066647;28;20036;-91
2024/01/27 01:02:41;;;;;;;9.52;7.40;;;2.00;99.90;;;;;;5065954;28;20028;-91
2024/01/27 01:05:07;;;;;;;11.15;6.65;;;2.00;99.90;;;;;;5083743;28;20399;-91
2024/01/27 01:07:33;;;;;;;11.00;7.65;;;1.90;99.90;;;;;;5065541;28;20028;-90
2024/01/27 01:09:59;;;;;;;9.15;6.25;;;2.00;99.90;;;;;;5083174;28;20036;-91
2024/01/27 01:12:25;;;;;;;7.38;6.68;;;1.90;99.90;;;;;;5056391;28;20048;-93
2024/01/27 01:14:52;;;;;;;9.02;7.30;;;1.80;99.90;;;;;;5057644;28;20025;-92
2024/01/27 01:17:18;;;;;;;10.13;7.18;;;1.70;99.90;;;;;;5065781;28;20060;-91
2024/01/27 01:19:45;;;;;;;10.63;7.10;;;1.70;99.90;;;;;;5064877;28;20032;-90
2024/01/27 01:22:11;;;;;;;11.70;7.13;;;1.70;99.90;;;;;;5083833;28;20048;-92
2024/01/27 01:24:36;;;;;;;9.43;7.45;;;1.50;99.90;;;;;;5083180;28;20020;-92
2024/01/27 01:27:03;;;;;;;11.95;7.72;;;1.50;99.90;;;;;;5060784;28;20053;-92
2024/01/27 01:29:28;;;;;;;7.93;6.18;;;1.50;99.90;;;;;;5061947;28;20082;-91
2024/01/27 01:31:54;;;;;;;12.10;7.00;;;1.40;99.90;;;;;;5063393;28;20032;-92
2024/01/27 01:34:23;;;;;;;11.98;6.82;;;1.40;99.90;;;;;;5082060;28;20055;-91
2024/01/27 01:36:48;;;;;;;11.02;6.45;;;1.40;99.90;;;;;;5081732;28;20466;-92
2024/01/27 01:39:14;;;;;;;10.57;8.32;;;1.20;99.90;;;;;;5064702;28;20027;-91
2024/01/27 01:41:42;;;;;;;9.75;7.60;;;1.20;99.90;;;;;;5082044;28;20065;-92
2024/01/27 01:44:08;;;;;;;12.98;7.53;;;1.30;99.90;;;;;;5064439;28;20086;-90
2024/01/27 01:46:34;;;;;;;14.75;7.63;;;1.20;99.90;;;;;;5082433;28;20108;-92
2024/01/27 01:49:00;;;;;;;11.05;7.03;;;1.20;99.90;;;;;;5081381;28;20047;-92
2024/01/27 01:51:26;;;;;;;10.80;7.95;;;1.20;99.90;;;;;;5064231;28;20100;-93
2024/01/27 01:53:56;;;;;;;12.05;7.38;;;1.00;99.90;;;;;;5063740;28;20028;-92
2024/01/27 01:56:23;;;;;;;8.50;6.22;;;1.00;99.90;;;;;;5082956;28;20089;-92
2024/01/27 01:58:49;;;;;;;9.45;7.53;;;1.10;99.90;;;;;;5082244;28;20017;-92
2024/01/27 02:01:16;;;;;;;8.73;7.22;;;1.10;99.90;;;;;;5082210;28;20027;-92
2024/01/27 02:03:54;;;;;;;10.70;6.82;;;1.10;99.90;;;;;;5064298;28;20020;-92
2024/01/27 02:06:20;;;;;;;11.60;6.90;;;1.10;99.90;;;;;;5064375;28;20025;-92
2024/01/27 02:08:46;;;;;;;10.63;6.22;;;1.20;99.90;;;;;;5082097;28;20024;-92
2024/01/27 02:11:12;;;;;;;12.32;8.07;;;1.30;99.90;;;;;;5064079;28;20024;-91
2024/01/27 02:13:38;;;;;;;9.45;6.88;;;1.20;99.90;;;;;;5064566;28;20031;-92
2024/01/27 02:16:04;;;;;;;10.27;6.32;;;1.10;99.90;;;;;;5081841;28;20028;-91
2024/01/27 02:18:30;;;;;;;10.77;7.05;;;1.00;99.90;;;;;;5064679;28;20020;-90
2024/01/27 02:20:56;;;;;;;11.52;7.25;;;1.00;99.90;;;;;;5063695;28;20166;-94
2024/01/27 02:23:22;;;;;;;10.63;6.95;;;1.10;99.90;;;;;;5082368;28;20021;-92
2024/01/27 02:25:48;;;;;;;11.23;7.03;;;1.00;99.90;;;;;;5084235;28;20047;-92
2024/01/27 02:28:13;;;;;;;9.23;7.05;;;1.00;99.90;;;;;;5070658;28;20020;-90
2024/01/27 02:30:40;;;;;;;11.52;7.03;;;1.00;99.90;;;;;;5085014;28;20391;-92
2024/01/27 02:33:05;;;;;;;11.63;6.93;;;1.00;99.90;;;;;;5065917;28;20028;-93
2024/01/27 02:35:31;;;;;;;9.63;5.80;;;1.00;99.90;;;;;;5081761;28;20022;-92
2024/01/27 02:37:57;;;;;;;8.88;7.30;;;0.90;99.90;;;;;;5081912;28;20025;-91
2024/01/27 02:40:22;;;;;;;10.00;6.85;;;0.90;99.90;;;;;;5063443;28;20025;-92
2024/01/27 02:42:48;;;;;;;10.20;6.22;;;0.90;99.90;;;;;;5082309;28;20023;-92
2024/01/27 02:45:14;;;;;;;8.05;6.50;;;0.90;99.90;;;;;;5082476;28;20020;-92
2024/01/27 02:47:40;;;;;;;10.27;7.53;;;0.90;99.90;;;;;;5082366;28;20441;-90
2024/01/27 02:50:06;;;;;;;9.20;7.40;;;0.90;99.90;;;;;;5081465;28;20053;-92
2024/01/27 02:52:32;;;;;;;14.68;7.75;;;0.90;99.90;;;;;;5063588;28;20025;-91
2024/01/27 02:54:58;;;;;;;9.68;6.97;;;0.80;99.90;;;;;;5081846;28;20032;-91
2024/01/27 02:57:24;;;;;;;12.45;8.98;;;0.70;99.90;;;;;;5060218;28;20025;-91
2024/01/27 02:59:50;;;;;;;17.30;7.95;;;0.70;99.90;;;;;;5062448;28;20044;-91
2024/01/27 03:02:16;;;;;;;13.05;6.03;;;0.60;99.90;;;;;;5061717;28;20047;-91
2024/01/27 03:04:44;;;;;;;9.30;6.38;;;0.70;99.90;;;;;;5060727;28;20017;-91
2024/01/27 03:07:10;;;;;;;8.63;6.97;;;0.60;99.90;;;;;;5061411;28;20165;-92
2024/01/27 03:09:36;;;;;;;13.18;9.02;;;0.50;99.90;;;;;;5080318;28;20040;-91
2024/01/27 03:12:02;;;;;;;12.63;8.38;;;0.50;99.90;;;;;;5064601;28;20110;-91
2024/01/27 03:14:28;;;;;;;13.00;8.00;;;0.50;99.90;;;;;;5062963;28;20028;-91
2024/01/27 03:16:54;;;;;;;11.25;6.80;;;0.50;99.90;;;;;;5081510;28;20035;-91
2024/01/27 03:19:20;;;;;;;7.30;6.22;;;0.40;99.90;;;;;;5059829;28;20017;-93
2024/01/27 03:21:46;;;;;;;12.23;6.65;;;0.40;99.90;;;;;;5060042;28;20059;-92
2024/01/27 03:24:12;;;;;;;10.13;7.60;;;0.30;99.90;;;;;;5077559;28;20099;-91
2024/01/27 03:26:38;;;;;;;10.77;6.82;;;0.40;99.90;;;;;;5081494;28;20066;-91
2024/01/27 03:29:03;;;;;;;15.05;8.30;;;0.40;99.90;;;;;;5081586;28;20050;-92
2024/01/27 03:31:34;;;;;;;10.52;6.57;;;0.40;99.90;;;;;;5063895;28;20029;-92
2024/01/27 03:34:01;;;;;;;11.43;7.13;;;0.40;99.90;;;;;;5082070;28;20543;-92
2024/01/27 03:36:30;;;;;;;10.40;7.20;;;0.40;99.90;;;;;;5081306;28;20082;-92
2024/01/27 03:38:58;;;;;;;10.75;6.28;;;0.40;99.90;;;;;;5082382;28;20079;-92
2024/01/27 03:41:23;;;;;;;9.82;6.78;;;0.30;99.90;;;;;;5081951;28;20545;-93
2024/01/27 03:43:49;;;;;;;9.32;6.25;;;0.30;99.90;;;;;;5063055;28;20111;-92
2024/01/27 03:46:15;;;;;;;9.30;6.35;;;0.30;99.90;;;;;;5064604;28;20029;-91
2024/01/27 03:48:41;;;;;;;10.90;8.30;;;0.30;99.90;;;;;;5062262;28;20052;-90
2024/01/27 03:51:07;;;;;;;11.40;6.53;;;0.30;99.90;;;;;;5059449;28;20021;-91
2024/01/27 03:53:33;;;;;;;10.10;6.40;;;0.20;99.90;;;;;;5062409;28;20031;-91
2024/01/27 03:56:02;;;;;;;9.05;6.72;;;0.30;99.90;;;;;;5060161;28;20461;-91
2024/01/27 03:58:29;;;;;;;9.95;7.50;;;0.30;99.90;;;;;;5062041;28;20013;-93
2024/01/27 04:00:56;;;;;;;8.40;5.95;;;0.30;99.90;;;;;;5060489;28;20075;-92
2024/01/27 04:03:21;;;;;;;10.02;6.85;;;0.20;99.90;;;;;;5064085;28;20025;-91
2024/01/27 04:05:47;;;;;;;10.00;7.18;;;0.20;99.90;;;;;;5063657;28;20070;-91
2024/01/27 04:08:13;;;;;;;8.82;7.68;;;0.20;99.90;;;;;;5082316;28;20024;-91
2024/01/27 04:10:39;;;;;;;10.43;6.82;;;0.10;99.90;;;;;;5064308;28;20033;-92
2024/01/27 04:13:05;;;;;;;10.88;8.05;;;0.10;99.90;;;;;;5066515;28;20084;-92
2024/01/27 04:15:38;;;;;;;11.20;6.70;;;0.10;99.90;;;;;;5082578;28;20017;-91
2024/01/27 04:18:08;;;;;;;14.95;8.05;;;0.10;99.90;;;;;;5064159;28;20024;-92
2024/01/27 04:20:34;;;;;;;13.43;7.22;;;0.00;99.90;;;;;;5081440;28;20072;-89
2024/01/27 04:23:01;;;;;;;11.20;7.20;;;0.00;99.90;;;;;;5063638;28;20024;-92
2024/01/27 04:25:26;;;;;;;11.88;6.57;;;0.00;99.90;;;;;;5063288;28;20017;-92
2024/01/27 04:27:52;;;;;;;11.45;6.03;;;0.00;99.90;;;;;;5081703;28;20047;-93
2024/01/27 04:30:19;;;;;;;11.15;6.15;;;0.00;99.90;;;;;;5083933;28;20024;-92
2024/01/27 04:32:44;;;;;;;12.55;6.60;;;0.00;99.90;;;;;;5086452;28;20032;-92
2024/01/27 04:35:11;;;;;;;9.75;7.75;;;-0.10;99.90;;;;;;5086860;28;20024;-92
2024/01/27 04:37:37;;;;;;;11.90;6.10;;;-0.10;99.90;;;;;;5085731;28;20452;-93
2024/01/27 04:40:05;;;;;;;10.27;7.10;;;-0.10;99.90;;;;;;5085302;28;20028;-95
2024/01/27 04:42:37;;;;;;;9.27;5.25;;;-0.10;99.90;;;;;;5085780;28;20024;-91
2024/01/27 04:45:04;;;;;;;10.65;5.78;;;-0.10;99.90;;;;;;5068779;28;20029;-91
2024/01/27 04:47:30;;;;;;;7.80;6.15;;;0.00;99.90;;;;;;5068382;28;20473;-91
2024/01/27 04:49:57;;;;;;;9.10;6.20;;;0.00;99.90;;;;;;5068233;28;20131;-92
2024/01/27 04:52:23;;;;;;;10.73;8.27;;;-0.10;99.90;;;;;;5067565;28;20112;-92
2024/01/27 04:54:51;;;;;;;14.68;8.77;;;-0.10;99.90;;;;;;5067310;28;20024;-92
2024/01/27 04:57:17;;;;;;;11.38;7.25;;;-0.10;99.90;;;;;;5066339;28;20056;-91
2024/01/27 04:59:42;;;;;;;8.40;6.82;;;0.00;99.90;;;;;;5066373;28;20021;-92
2024/01/27 05:02:08;;;;;;;13.07;6.65;;;0.00;99.90;;;;;;5064187;28;20025;-91
2024/01/27 05:04:34;;;;;;;8.95;7.47;;;0.00;99.90;;;;;;5065058;28;20131;-92
2024/01/27 05:06:59;;;;;;;9.20;6.10;;;0.00;99.90;;;;;;5066968;28;20025;-90
2024/01/27 05:09:25;;;;;;;10.10;7.63;;;-0.10;99.90;;;;;;5066492;28;20434;-91
2024/01/27 05:11:52;;;;;;;10.38;7.93;;;-0.10;99.90;;;;;;5066989;28;20060;-91
2024/01/27 05:14:19;;;;;;;9.32;7.13;;;0.00;99.90;;;;;;5066908;28;20103;-92
2024/01/27 05:16:48;;;;;;;9.75;6.72;;;0.00;99.90;;;;;;5067216;28;20048;-93
2024/01/27 05:19:16;;;;;;;11.50;7.40;;;0.10;99.90;;;;;;5062786;28;20545;-91
2024/01/27 05:21:44;;;;;;;8.27;6.82;;;0.10;99.90;;;;;;5064742;28;20021;-91
2024/01/27 05:24:11;;;;;;;9.70;6.82;;;-0.10;99.90;;;;;;5063189;28;20021;-93
2024/01/27 05:26:37;;;;;;;10.77;6.80;;;0.00;99.90;;;;;;5057002;28;20028;-92
2024/01/27 05:29:03;;;;;;;11.13;7.07;;;-0.10;99.90;;;;;;5067305;28;20039;-90
2024/01/27 05:31:28;;;;;;;12.07;6.55;;;0.00;99.90;;;;;;5071697;28;20029;-94
2024/01/27 05:33:55;;;;;;;10.82;7.32;;;-0.10;99.90;;;;;;5065644;28;20032;-90
2024/01/27 05:36:21;;;;;;;12.20;6.60;;;-0.10;99.90;;;;;;5046689;28;20025;-90
2024/01/27 05:38:46;;;;;;;12.43;6.25;;;-0.10;99.90;;;;;;5047059;28;20091;-91
2024/01/27 05:41:12;;;;;;;11.90;7.00;;;-0.10;99.90;;;;;;5052198;28;20500;-90
2024/01/27 05:43:38;;;;;;;9.77;7.47;;;0.00;99.90;;;;;;5066937;28;20024;-92
2024/01/27 05:46:04;;;;;;;8.93;6.15;;;-0.10;99.90;;;;;;5084916;28;20490;-92
2024/01/27 05:48:30;;;;;;;10.35;6.18;;;-0.10;99.90;;;;;;5075342;28;20070;-92
2024/01/27 05:51:00;;;;;;;8.57;6.90;;;-0.10;99.90;;;;;;5066791;28;20020;-91
2024/01/27 05:53:30;;;;;;;10.18;7.03;;;-0.20;99.90;;;;;;5083732;28;20023;-91
2024/01/27 05:55:59;;;;;;;8.45;6.65;;;-0.20;99.90;;;;;;5067232;28;20024;-92
2024/01/27 05:58:24;;;;;;;8.80;5.55;;;-0.40;99.90;;;;;;5067241;28;20087;-90
2024/01/27 06:00:51;;;;;;;8.02;5.50;;;-0.40;99.90;;;;;;5084694;28;20482;-91
2024/01/27 06:03:17;;;;;;;8.38;5.32;;;-0.40;99.90;;;;;;5085725;28;20021;-92
2024/01/27 06:05:45;;;;;;;9.55;7.45;;;-0.50;99.90;;;;;;5085030;28;20459;-92
2024/01/27 06:08:12;;;;;;;12.18;7.40;;;-0.40;99.90;;;;;;5093534;28;20032;-91
2024/01/27 06:10:38;;;;;;;9.88;7.18;;;-0.40;99.90;;;;;;5070387;28;20088;-91
2024/01/27 06:13:06;;;;;;;11.48;6.72;;;-0.50;99.90;;;;;;5070177;28;20451;-92
2024/01/27 06:15:32;;;;;;;10.43;7.93;;;-0.50;99.90;;;;;;5068486;28;20028;-90
2024/01/27 06:17:58;;;;;;;12.68;7.55;;;-0.40;99.90;;;;;;5068211;28;20035;-91
2024/01/27 06:20:24;;;;;;;10.40;7.30;;;-0.40;99.90;;;;;;5068455;28;20107;-92
2024/01/27 06:22:54;;;;;;;9.45;5.57;;;-0.40;99.90;;;;;;5068319;28;20029;-92
2024/01/27 06:25:21;;;;;;;10.98;7.43;;;-0.40;99.90;;;;;;5064776;28;20025;-91
2024/01/27 06:27:47;;;;;;;9.70;6.68;;;-0.40;99.90;;;;;;5065542;28;20547;-91
2024/01/27 06:30:14;;;;;;;8.05;6.72;;;-0.50;99.90;;;;;;5064925;28;20028;-91
2024/01/27 06:32:43;;;;;;;11.00;6.47;;;-0.40;99.90;;;;;;5050625;28;20048;-91
2024/01/27 06:35:09;;;;;;;13.05;6.55;;;-0.40;99.90;;;;;;5085693;28;20375;-92
2024/01/27 06:37:35;;;;;;;11.48;6.70;;;-0.50;99.90;;;;;;5067857;28;20037;-91
2024/01/27 06:40:05;;;;;;;7.82;5.57;;;-0.60;99.90;;;;;;5068393;28;20031;-91
2024/01/27 06:42:30;;;;;;;12.30;5.97;;;-0.60;99.90;;;;;;5067118;28;20407;-91
2024/01/27 06:44:56;;;;;;;10.77;5.82;;;-0.50;99.90;;;;;;5063829;28;20082;-92
2024/01/27 06:47:22;;;;;;;8.55;6.10;;;-0.60;99.90;;;;;;5065133;28;20123;-91
2024/01/27 06:50:28;;;;;;;12.88;6.88;;;-0.70;99.90;;;;;;5065044;28;20499;-90
2024/01/27 06:52:55;;;;;;;7.82;5.95;;;-0.70;99.90;;;;;;5047654;28;20047;-92
2024/01/27 06:55:21;;;;;;;7.78;6.72;;;-0.70;99.90;;;;;;5047980;28;20261;-92
2024/01/27 06:57:47;;;;;;;8.95;4.88;;;-0.80;99.90;;;;;;5058413;28;20413;-90
2024/01/27 07:00:15;;;;;;;7.97;4.38;;;-0.80;99.90;;;;;;5067958;28;20082;-91
2024/01/27 07:02:43;;;;;;;7.40;4.88;;;-0.80;99.90;;;;;;5084481;28;20475;-91
2024/01/27 07:05:15;;;;;;;8.30;5.85;;;-0.80;99.90;;;;;;5066508;28;20039;-94
2024/01/27 07:07:53;;;;;;;9.55;5.38;;;-0.80;99.90;;;;;;5030283;28;20036;-92
2024/01/27 07:10:19;;;;;;;9.32;6.30;;;-0.90;99.90;;;;;;5044455;28;20033;-92
2024/01/27 07:12:56;;;;;;;9.32;6.13;;;-1.00;99.90;;;;;;5044795;28;20122;-92
2024/01/27 07:15:47;;;;;;;7.22;6.05;;;-1.00;99.90;;;;;;5043088;28;20043;-91
2024/01/27 07:18:14;;;;;;;8.93;6.38;;;-1.00;99.90;;;;;;5044856;28;20051;-94
2024/01/27 07:20:44;;;;;;;8.55;5.80;;;-1.00;99.90;;;;;;5044235;28;20020;-92
2024/01/27 07:23:10;;;;;;;8.02;5.80;;;-0.90;99.90;;;;;;5058115;28;20037;-91
2024/01/27 07:25:36;;;;;;;8.88;6.38;;;-0.90;99.90;;;;;;5082349;28;20036;-93
2024/01/27 07:28:05;;;;;;;7.07;5.72;;;-0.90;99.90;;;;;;5063571;28;20025;-90
2024/01/27 07:30:31;;;;;;;9.20;6.72;;;-0.90;99.90;;;;;;5082254;28;20029;-92
2024/01/27 07:32:57;;;;;;;10.18;6.00;;;-0.90;99.90;;;;;;5064171;28;20512;-91
2024/01/27 07:35:28;;;;;;;9.48;5.38;;;-1.00;99.90;;;;;;5064317;28;20028;-92
2024/01/27 07:37:54;;;;;;;9.50;6.15;;;-1.00;99.90;;;;;;5064812;28;20036;-92
2024/01/27 07:40:32;;;;;;;11.55;8.15;;;-1.00;99.90;;;;;;5065744;28;20028;-94
2024/01/27 07:42:58;;;;;;;8.57;6.10;;;-1.00;99.90;;;;;;5082541;28;20017;-91
2024/01/27 07:45:24;;;;;;;8.95;6.05;;;-1.00;99.90;;;;;;5064365;28;20133;-92
2024/01/27 07:47:50;;;;;;;8.60;5.50;;;-1.00;99.90;;;;;;5083185;28;20036;-93
2024/01/27 07:50:22;;;;;;;8.48;5.55;;;-1.00;99.90;;;;;;5064145;28;20032;-91
2024/01/27 07:52:48;;;;;;;12.77;7.45;;;-0.90;99.90;;;;;;5064132;28;20121;-93
2024/01/27 07:55:17;;;;;;;10.55;6.38;;;-0.80;99.90;;;;;;5064372;28;20025;-93
2024/01/27 07:57:44;;;;;;;8.20;7.28;;;-0.80;99.90;;;;;;5062966;28;20053;-92
2024/01/27 08:00:10;;;;;;;11.52;7.85;;;-0.80;99.90;;;;;;5063422;28;20024;-92
2024/01/27 08:02:36;;;;;;;13.75;8.23;;;-0.80;99.90;;;;;;5064479;28;20050;-93
2024/01/27 08:05:03;;;;;;;10.77;7.55;;;-0.70;99.90;;;;;;5067195;28;20021;-91
2024/01/27 08:07:35;;;;;;;11.70;8.25;;;-0.60;99.90;;;;;;5070720;28;20112;-93
2024/01/27 08:10:01;;;;;;;10.35;8.68;;;-0.50;99.90;;;;;;5070060;28;20173;-93
2024/01/27 08:12:27;;;;;;;16.10;9.43;;;-0.40;99.90;;;;;;5086984;28;20036;-90
2024/01/27 08:14:53;;;;;;;12.00;6.93;;;-0.40;99.90;;;;;;5068535;28;20082;-91
2024/01/27 08:17:19;;;;;;;9.93;7.90;;;-0.40;99.90;;;;;;5068555;28;20024;-93
2024/01/27 08:19:45;;;;;;;13.43;8.77;;;-0.40;99.90;;;;;;5069369;28;20432;-91
2024/01/27 08:22:12;;;;;;;19.67;17.20;;;-0.40;99.90;;;;;;5070195;28;20074;-92
2024/01/27 08:24:38;;;;;;;13.45;9.00;;;-0.40;99.90;;;;;;5052033;28;20047;-92
2024/01/27 08:27:05;;;;;;;18.92;10.93;;;-0.30;99.90;;;;;;5086099;28;20102;-92
2024/01/27 08:29:31;;;;;;;15.73;10.10;;;-0.20;99.90;;;;;;5067498;28;20029;-93
2024/01/27 08:31:57;;;;;;;11.75;7.80;;;-0.30;99.90;;;;;;5067866;28;20033;-92
2024/01/27 08:34:26;;;;;;;13.23;9.38;;;-0.10;99.90;;;;;;5066880;28;20044;-92
2024/01/27 08:36:52;;;;;;;13.52;7.82;;;-0.10;99.90;;;;;;5067620;28;20115;-92
2024/01/27 08:39:18;;;;;;;12.23;9.23;;;-0.10;99.90;;;;;;5066369;28;20080;-92
2024/01/27 08:41:44;;;;;;;11.80;9.20;;;0.00;99.90;;;;;;5067133;28;20225;-91
2024/01/27 08:44:10;;;;;;;13.15;10.10;;;0.00;99.90;;;;;;5067169;28;20088;-91
2024/01/27 08:46:40;;;;;;;20.60;9.07;;;0.10;99.90;;;;;;5066346;28;20039;-92
2024/01/27 08:49:06;;;;;;;14.02;10.10;;;0.10;99.90;;;;;;5084295;28;20028;-91
2024/01/27 08:51:31;;;;;;;13.82;10.23;;;0.20;99.90;;;;;;5084352;28;20035;-90
2024/01/27 08:53:57;;;;;;;15.25;9.48;;;0.20;99.90;;;;;;5083325;28;20021;-92
2024/01/27 08:56:26;;;;;;;16.15;11.68;;;0.30;99.90;;;;;;5065739;28;20094;-90
2024/01/27 08:58:52;;;;;;;15.82;10.80;;;0.40;99.90;;;;;;5060655;28;20025;-92
2024/01/27 09:01:21;;;;;;;17.83;11.95;;;0.60;99.90;;;;;;5042601;28;20029;-93
2024/01/27 09:03:47;;;;;;;17.02;11.23;;;0.60;99.90;;;;;;5028627;28;20044;-91
2024/01/27 09:06:14;;;;;;;16.60;12.38;;;0.70;99.90;;;;;;5060307;28;20020;-92
2024/01/27 09:08:41;;;;;;;15.43;10.88;;;0.70;99.90;;;;;;5064755;28;20017;-91
2024/01/27 09:11:10;;;;;;;18.13;13.05;;;0.70;99.90;;;;;;5064081;28;20047;-92
2024/01/27 09:13:36;;;;;;;15.48;11.13;;;0.80;99.90;;;;;;5065258;28;20025;-92
2024/01/27 09:16:04;;;;;;;17.23;10.18;;;0.80;99.90;;;;;;5064884;28;20420;-91
2024/01/27 09:18:30;;;;;;;13.45;10.10;;;0.90;99.90;;;;;;5064884;28;20425;-92
2024/01/27 09:20:55;;;;;;;13.23;8.45;;;0.90;99.90;;;;;;5081788;28;20061;-90
2024/01/27 09:23:21;;;;;;;12.43;8.15;;;1.00;99.90;;;;;;5077760;28;20024;-92
2024/01/27 09:25:47;;;;;;;12.00;8.50;;;1.00;99.90;;;;;;5079015;28;20023;-88
2024/01/27 09:28:14;;;;;;;15.38;8.43;;;1.10;99.90;;;;;;5077174;28;20029;-90
2024/01/27 09:30:40;;;;;;;16.17;8.60;;;1.20;99.90;;;;;;5050274;28;20025;-91
2024/01/27 09:33:06;;;;;;;13.05;10.88;;;1.20;99.90;;;;;;5073056;28;20025;-85
2024/01/27 09:35:31;;;;;;;16.05;9.13;;;1.30;99.90;;;;;;5076557;28;20070;-89
2024/01/27 09:37:57;;;;;;;17.58;10.13;;;1.60;99.90;;;;;;5079491;28;20024;-92
2024/01/27 09:40:22;;;;;;;16.10;10.88;;;1.60;99.90;;;;;;5080002;28;20384;-89
2024/01/27 09:42:55;;;;;;;17.63;10.75;;;1.70;99.90;;;;;;5083332;28;20021;-91
2024/01/27 09:45:23;;;;;;;14.15;8.60;;;1.80;99.90;;;;;;5076274;28;20431;-90
2024/01/27 09:47:49;;;;;;;10.60;7.97;;;1.80;99.90;;;;;;5072072;28;20147;-88
2024/01/27 09:50:17;;;;;;;12.40;8.50;;;1.90;99.90;;;;;;5070215;28;20264;-89
2024/01/27 09:52:43;;;;;;;15.80;11.05;;;2.00;99.90;;;;;;5079526;28;20087;-90
2024/01/27 09:55:09;;;;;;;11.60;8.65;;;2.10;99.90;;;;;;5077682;28;20663;-90
2024/01/27 09:57:39;;;;;;;12.88;7.68;;;2.20;99.90;;;;;;5075900;28;20471;-90
2024/01/27 10:00:09;;;;;;;11.60;7.63;;;2.30;99.90;;;;;;5076372;28;20041;-89
2024/01/27 10:02:36;;;;;;;16.27;9.23;;;2.40;99.90;;;;;;5084722;28;20025;-92
2024/01/27 10:05:02;;;;;;;9.55;8.02;;;2.50;99.90;;;;;;5077693;28;20025;-90
2024/01/27 10:07:28;;;;;;;14.90;10.50;;;2.60;99.90;;;;;;5076304;28;20035;-92
2024/01/27 10:09:53;;;;;;;15.05;7.97;;;2.80;99.90;;;;;;5078227;28;20056;-90
2024/01/27 10:12:22;;;;;;;12.30;9.13;;;3.00;99.90;;;;;;5062388;28;20044;-90
2024/01/27 10:14:50;;;;;;;11.50;6.80;;;3.10;99.90;;;;;;5068131;28;20094;-90
2024/01/27 10:17:23;;;;;;;10.75;8.25;;;3.30;99.90;;;;;;5078928;28;20089;-90
2024/01/27 10:20:07;;;;;;;14.18;9.65;;;3.50;99.90;;;;;;5056399;28;20021;-91
2024/01/27 10:22:43;;;;;;;12.75;8.98;;;3.60;99.90;;;;;;5058251;28;20017;-90
2024/01/27 10:25:11;;;;;;;10.32;6.72;;;3.80;99.90;;;;;;5079610;28;20398;-89
2024/01/27 10:27:38;;;;;;;10.00;7.13;;;3.90;99.90;;;;;;5077782;28;20414;-90
2024/01/27 10:30:04;;;;;;;8.60;5.80;;;4.10;99.90;;;;;;5072501;28;20053;-90
2024/01/27 10:32:30;;;;;;;9.70;6.93;;;4.30;99.90;;;;;;5067127;28;20028;-90
2024/01/27 10:35:08;;;;;;;9.00;5.68;;;4.50;99.90;;;;;;5080404;28;20035;-88
2024/01/27 10:37:34;;;;;;;10.32;6.57;;;4.70;99.90;;;;;;5079092;28;20025;-91
2024/01/27 10:40:04;;;;;;;9.85;5.97;;;4.80;99.90;;;;;;5079660;28;20368;-90
2024/01/27 10:42:30;;;;;;;9.07;6.35;;;5.10;99.90;;;;;;5061412;28;20031;-89
2024/01/27 10:45:02;;;;;;;9.25;5.28;;;5.10;99.90;;;;;;5078383;28;20017;-89
2024/01/27 10:47:30;;;;;;;8.68;5.55;;;5.20;99.60;;;;;;5081038;28;20031;-90
2024/01/27 10:50:00;;;;;;;9.70;5.35;;;5.30;99.00;;;;;;5081553;28;20054;-89
2024/01/27 10:52:34;;;;;;;11.07;6.38;;;5.40;99.20;;;;;;5075311;28;20051;-89
2024/01/27 10:55:06;;;;;;;9.43;5.43;;;5.50;98.90;;;;;;5079088;28;20094;-89
2024/01/27 10:57:33;;;;;;;12.77;5.38;;;5.70;99.40;;;;;;5079212;28;20063;-89
2024/01/27 11:00:01;;;;;;;9.98;5.80;;;5.80;98.00;;;;;;5060404;28;20021;-90
2024/01/27 11:02:32;;;;;;;9.75;4.65;;;6.10;96.50;;;;;;5077183;28;20031;-89
2024/01/27 11:05:00;;;;;;;6.65;4.25;;;6.20;94.20;;;;;;5077480;28;20428;-91
2024/01/27 11:07:26;;;;;;;7.88;4.70;;;6.50;93.40;;;;;;5078878;28;20047;-90
2024/01/27 11:09:52;;;;;;;5.63;4.15;;;6.60;91.50;;;;;;5080405;28;20465;-90
2024/01/27 11:12:19;;;;;;;8.45;4.95;;;6.80;89.30;;;;;;5070137;28;20034;-90
2024/01/27 11:14:50;;;;;;;7.63;4.57;;;6.80;87.80;;;;;;5078550;28;20031;-91
2024/01/27 11:17:16;;;;;;;7.72;4.28;;;6.90;87.70;;;;;;5063437;28;20024;-89
2024/01/27 11:19:42;;;;;;;8.43;4.45;;;7.00;88.80;;;;;;5076602;28;20467;-90
2024/01/27 11:22:17;;;;;;;9.38;4.47;;;7.20;88.00;;;;;;5061211;28;20023;-89
2024/01/27 11:24:43;;;;;;;11.88;4.85;;;7.60;89.80;;;;;;5060887;28;20035;-91
2024/01/27 11:27:09;;;;;;;6.57;4.72;;;7.70;87.30;;;;;;5081357;28;20032;-90
2024/01/27 11:29:36;;;;;;;7.32;4.65;;;7.90;83.80;;;;;;5079646;28;20062;-90
2024/01/27 11:32:03;;;;;;;12.07;5.00;;;8.10;83.80;;;;;;5061067;28;20025;-90
2024/01/27 11:34:43;;;;;;;17.75;8.75;;;8.30;79.40;;;;;;5061354;28;20084;-92
2024/01/27 11:37:14;;;;;;;8.68;6.03;;;8.20;81.90;;;;;;5080338;28;20035;-91
2024/01/27 11:39:39;;;;;;;7.72;4.63;;;8.40;78.80;;;;;;5079325;28;20441;-92
2024/01/27 11:42:10;;;;;;;7.28;3.70;;;8.50;81.00;;;;;;5079598;28;20016;-91
2024/01/27 11:44:37;;;;;;;7.30;3.60;;;8.70;77.10;;;;;;5061438;28;20020;-91
2024/01/27 11:47:03;;;;;;;9.30;4.22;;;8.70;76.10;;;;;;5080048;28;20021;-90
2024/01/27 11:49:29;;;;;;;9.95;4.85;;;8.70;79.30;;;;;;5078091;28;20051;-91
2024/01/27 11:51:55;;;;;;;11.45;4.50;;;9.20;75.40;;;;;;5083557;28;20029;-92
2024/01/27 11:54:20;;;;;;;9.25;4.30;;;9.20;74.10;;;;;;5079596;28;20032;-91
2024/01/27 11:56:46;;;;;;;9.55;4.25;;;9.40;74.10;;;;;;5079398;28;20043;-91
2024/01/27 11:59:12;;;;;;;11.20;5.50;;;9.50;71.80;;;;;;5071148;28;20032;-93
2024/01/27 12:01:38;;;;;;;12.38;4.70;;;9.50;70.50;;;;;;5060312;28;20027;-92
2024/01/27 12:04:09;;;;;;;8.43;3.55;;;9.60;69.70;;;;;;5077224;28;20548;-92
2024/01/27 12:06:34;;;;;;;8.15;4.05;;;9.80;68.80;;;;;;5072726;28;20037;-92
2024/01/27 12:09:00;;;;;;;6.80;4.28;;;9.90;70.30;;;;;;5060656;28;20027;-92
2024/01/27 12:11:26;;;;;;;8.48;3.60;;;10.10;65.90;;;;;;5060452;28;20142;-91
2024/01/27 12:13:53;;;;;;;9.70;3.58;;;10.30;66.40;;;;;;5056757;28;20021;-93
2024/01/27 12:16:21;;;;;;;8.43;4.38;;;10.30;64.70;;;;;;5077959;28;20062;-92
2024/01/27 12:18:47;;;;;;;9.30;4.65;;;10.40;66.10;;;;;;5072640;28;20036;-92
2024/01/27 12:21:13;;;;;;;18.52;8.80;;;10.70;65.00;;;;;;5066007;28;20048;-92
2024/01/27 12:23:49;;;;;;;10.45;3.22;;;10.80;62.60;;;;;;5079072;28;20051;-91
2024/01/27 12:26:15;;;;;;;7.80;4.50;;;11.00;61.50;;;;;;5080877;28;20483;-92
2024/01/27 12:28:41;;;;;;;7.05;3.15;;;11.20;58.60;;;;;;5080645;28;20058;-92
2024/01/27 12:31:06;;;;;;;8.07;4.63;;;11.40;58.20;;;;;;5075463;28;20515;-93
2024/01/27 12:33:32;;;;;;;5.95;4.00;;;11.40;57.60;;;;;;5075975;28;20025;-92
2024/01/27 12:35:58;;;;;;;6.65;4.32;;;11.50;57.90;;;;;;5076537;28;20017;-92
2024/01/27 12:38:24;;;;;;;7.50;3.67;;;11.70;57.90;;;;;;5072206;28;20033;-92
2024/01/27 12:40:49;;;;;;;9.27;3.58;;;11.80;55.40;;;;;;5069655;28;20031;-92
2024/01/27 12:43:15;;;;;;;10.07;5.00;;;12.00;54.20;;;;;;5060447;28;20090;-92
2024/01/27 12:45:41;;;;;;;6.20;3.47;;;11.90;56.00;;;;;;5075085;28;20017;-91
2024/01/27 12:48:07;;;;;;;7.90;3.45;;;12.20;53.50;;;;;;5065287;28;20617;-92